Share

Apodi, Brazil

6:15 PM BRT on April 23, 2014 (GMT -0300)
Dix Sept Rosado (SBMS) Elev 75 ft | 5.20 °S, 37.36 °W | Change Station

Current weather conditions updated 15 minutes ago

Partly Cloudy
Partly Cloudy
84 °F
Feels Like 94 °F
N
14
Wind Variable Wind from NE
Sunrise 5:31 AM
Sunset 5:27 PM
Moon Waning Crescent

Tomorrow is forecast to be nearly the same temperature as today.

Pressure 29.83 in
Visibility 6.2 miles
Clouds Few 2500 ft
Heat Index 94 °F
Dew Point 77 °F
Humidity 79%
Rainfall 0.00 in
Snow Depth Not available.
UV 0 out of 16
Pollen Not available.
Air Quality Not available.
Flu Activity Not available.
METAR SBMS 232100Z 04012KT 9999 FEW025 29/25 Q1010

More Conditions Fewer Conditions

Pressure 29.83 in
Visibility 6.2 miles
Clouds Few 2500 ft
Heat Index 94 °F
Dew Point 77 °F
Humidity 79%
Rainfall 0.00 in
Snow Depth Not available.
UV 0 out of 16
Pollen Not available.
Air Quality Not available.
Flu Activity Not available.
METAR SBMS 232100Z 04012KT 9999 FEW025 29/25 Q1010

More Conditions Fewer Conditions

10-Day Weather Forecast

Almanac

Astronomy

Apr. 23, 2014 Rise Set
Actual Time 5:31 AM BRT 5:27 PM BRT
Civil Twilight 5:09 AM BRT 5:49 PM BRT
Nautical Twilight 4:45 AM BRT 6:13 PM BRT
Astronomical Twilight 4:20 AM BRT 6:38 PM BRT
Moon 12:21 AM BRT 12:55 PM BRT
Length of Visible Light 12h 39m
Length of Day
11h 56m
Tomorrow will be 0m 15s shorter.
Waning Crescent, 33% of the Moon is Illuminated
Today
Waning Crescent
Apr 29
New
May 6
First Quarter
May 14
Full
May 21
Last Quarter

Today's Extremes

Country Highs Country Lows

Community

  • Stunning Sunrise
    Stunning Sunrise
  • spring flowers
    spring flowers
  • Earth Day Spectrum Ove' Blue
    Earth Day Spectrum Ove' Blue
  • BARN B&W
    BARN B&W
  • April Sunset
    April Sunset

WunderPhotos

Upload Photos

1,704,412 photos uploaded!

WunderBlogs® & News

Nearby

Snow Depth

Not available.

Coastal Water Temperatures

Place Temperature
No Stations Reporting

Earthquake Activity

City Distance Mag. Time & Date
No recent earthquake activity has been reported nearby.
Minimum magnitude displayed is 2.5.

Nearby Weather Stations

There are no personal weather stations in this area.

What do you think?

We're not finished. Please let us know what you like, what you don't like, and what you are still missing.